Time;durP1;ratioP1;P1;durP2;ratioP2;P2;SDS_P1;SDS_P2;PMS_P1;PMS_P2;Temp;Humidity;BMP_temperature;BMP_pressure;BME280_temperature;BME280_humidity;BME280_pressure;Samples;Min_cycle;Max_cycle;Signal;HPM_P1;HPM_P2
2022/11/25 00:02:24;;;;;;;4.33;2.70;;;;;;;-141.28;100.00;49733.56;5114314;28;20573;-75
2022/11/25 00:04:51;;;;;;;4.20;2.83;;;;;;;-141.28;100.00;49733.56;5113986;28;20452;-75
2022/11/25 00:07:17;;;;;;;4.77;2.80;;;;;;;-141.28;100.00;49764.97;5122715;28;20477;-73
2022/11/25 00:09:44;;;;;;;3.57;2.60;;;;;;;-141.28;100.00;49764.97;5124225;28;20445;-74
2022/11/25 00:12:13;;;;;;;4.87;3.03;;;;;;;-141.28;100.00;49757.13;5121577;28;20445;-74
2022/11/25 00:14:40;;;;;;;5.70;2.87;;;;;;;-141.28;100.00;49745.34;5117411;28;20448;-75
2022/11/25 00:17:07;;;;;;;5.30;2.97;;;;;;;-141.28;100.00;49772.81;5119159;28;20471;-75
2022/11/25 00:19:35;;;;;;;3.23;2.43;;;;;;;-141.28;100.00;49786.56;5115224;28;20501;-73
2022/11/25 00:22:02;;;;;;;5.10;2.63;;;;;;;-141.28;100.00;49776.75;5113021;28;20481;-75
2022/11/25 00:24:29;;;;;;;3.43;2.40;;;;;;;-141.28;100.00;49808.16;5113717;28;20497;-75
2022/11/25 00:26:56;;;;;;;4.17;2.97;;;;;;;-141.28;100.00;49827.78;5113215;28;20472;-77
2022/11/25 00:29:24;;;;;;;3.90;2.53;;;;;;;-141.28;100.00;49835.63;5113004;28;20854;-75
2022/11/25 00:31:52;;;;;;;2.97;2.43;;;;;;;-141.28;100.00;49827.78;5112744;28;20474;-74
2022/11/25 00:34:19;;;;;;;5.17;3.10;;;;;;;-141.28;100.00;49804.22;5114115;28;20461;-76
2022/11/25 00:36:46;;;;;;;4.90;3.00;;;;;;;-141.28;100.00;49831.69;5107335;28;20450;-75
2022/11/25 00:39:15;;;;;;;3.20;2.80;;;;;;;-141.28;100.00;49837.59;5105326;28;20493;-79
2022/11/25 00:44:38;;;;;;;3.77;2.63;;;;;;;-141.28;100.00;49817.97;5112726;28;20439;-77
2022/11/25 00:47:07;;;;;;;3.63;2.93;;;;;;;-141.28;100.00;49857.22;5109457;28;20574;-77
2022/11/25 00:49:35;;;;;;;7.53;2.97;;;;;;;-141.28;100.00;49802.25;5103910;28;20475;-77
2022/11/25 00:52:03;;;;;;;3.20;2.70;;;;;;;-141.28;100.00;49780.69;5110282;28;20445;-79
2022/11/25 00:54:30;;;;;;;5.57;3.17;;;;;;;-141.28;100.00;49768.91;5112403;28;20970;-75
2022/11/25 00:56:57;;;;;;;7.00;3.70;;;;;;;-141.28;100.00;49774.78;5111765;28;20445;-74
2022/11/25 00:59:24;;;;;;;7.50;3.50;;;;;;;-141.28;100.00;49670.78;5112298;28;21016;-77
2022/11/25 01:01:53;;;;;;;4.67;3.27;;;;;;;-141.28;100.00;49788.53;5113252;28;20456;-75
2022/11/25 01:04:20;;;;;;;5.37;3.40;;;;;;;-141.28;100.00;49782.63;5112703;28;20448;-74
2022/11/25 01:06:47;;;;;;;8.07;3.27;;;;;;;-141.28;100.00;49804.22;5110896;28;20909;-75
2022/11/25 01:09:15;;;;;;;5.17;3.10;;;;;;;-141.28;100.00;49796.38;5112588;28;20448;-78
2022/11/25 01:11:42;;;;;;;4.03;3.00;;;;;;;-141.28;100.00;49804.22;5098938;28;20441;-76
2022/11/25 01:14:09;;;;;;;5.87;3.80;;;;;;;-141.28;100.00;49819.94;5111730;28;20518;-76
2022/11/25 01:16:36;;;;;;;5.03;3.17;;;;;;;-141.28;100.00;49823.84;5112369;28;20444;-76
2022/11/25 01:19:05;;;;;;;4.83;3.53;;;;;;;-141.28;100.00;49839.56;5111881;28;20488;-78
2022/11/25 01:21:33;;;;;;;9.67;4.73;;;;;;;-141.28;100.00;49859.19;5111966;28;20495;-78
2022/11/25 01:24:01;;;;;;;4.30;3.27;;;;;;;-141.28;100.00;49831.69;5111057;28;20452;-75
2022/11/25 01:26:29;;;;;;;10.93;3.13;;;;;;;-141.28;100.00;49874.88;5111989;28;21007;-73
2022/11/25 01:28:57;;;;;;;4.40;3.07;;;;;;;-141.28;100.00;49833.66;5114992;28;20958;-76
2022/11/25 01:31:26;;;;;;;4.23;3.00;;;;;;;-141.28;100.00;49845.44;5117644;28;20453;-74
2022/11/25 01:33:55;;;;;;;4.83;3.10;;;;;;;-141.28;100.00;49874.88;5101150;28;20453;-75
2022/11/25 01:36:24;;;;;;;3.43;3.00;;;;;;;-141.28;100.00;49874.88;5113691;28;20875;-78
2022/11/25 01:38:53;;;;;;;4.83;3.20;;;;;;;-141.28;100.00;49859.19;5113164;28;20449;-76
2022/11/25 01:41:21;;;;;;;4.30;3.10;;;;;;;-141.28;100.00;49867.03;5099127;28;20453;-76
2022/11/25 01:44:11;;;;;;;4.00;2.73;;;;;;;-141.28;100.00;49851.31;5101431;28;20565;-75
2022/11/25 01:46:53;;;;;;;3.23;2.37;;;;;;;-141.28;100.00;49831.69;5094580;28;20528;-75
2022/11/25 01:49:25;;;;;;;4.23;2.93;;;;;;;-141.28;100.00;49816.00;5111883;28;20951;-78
2022/11/25 01:51:57;;;;;;;3.73;2.87;;;;;;;-141.28;100.00;49819.94;5112850;28;20965;-78
2022/11/25 01:54:27;;;;;;;5.73;2.93;;;;;;;-141.28;100.00;49812.06;5098688;28;20475;-77
2022/11/25 01:56:58;;;;;;;4.50;2.80;;;;;;;-141.28;100.00;49823.84;5110869;28;20480;-75
2022/11/25 01:59:26;;;;;;;3.40;2.63;;;;;;;-141.28;100.00;49823.84;5114930;28;20474;-75
2022/11/25 02:01:54;;;;;;;3.20;2.77;;;;;;;-141.28;100.00;49831.69;5115480;28;20521;-78
2022/11/25 02:04:23;;;;;;;3.40;2.33;;;;;;;-141.28;100.00;49831.69;5115772;28;20475;-75
2022/11/25 02:06:57;;;;;;;2.97;2.40;;;;;;;-141.28;100.00;49839.56;5115446;28;20440;-76
2022/11/25 02:09:26;;;;;;;4.03;2.40;;;;;;;-141.28;100.00;49823.84;5115898;28;20445;-75
2022/11/25 02:11:53;;;;;;;3.00;2.40;;;;;;;-141.28;100.00;49812.06;5115339;28;20449;-75
2022/11/25 02:14:23;;;;;;;3.80;2.40;;;;;;;-141.28;100.00;49770.88;5120091;28;20776;-76
2022/11/25 02:16:51;;;;;;;3.90;2.30;;;;;;;-141.28;100.00;49829.75;5123181;28;20449;-77
2022/11/25 02:19:24;;;;;;;4.60;2.93;;;;;;;-141.28;100.00;49796.38;5121578;28;20505;-75
2022/11/25 02:22:00;;;;;;;3.47;2.40;;;;;;;-141.28;100.00;49819.94;5115274;28;20472;-75
2022/11/25 02:24:34;;;;;;;3.37;2.50;;;;;;;-141.28;100.00;49774.78;5115507;28;20979;-73
2022/11/25 02:27:04;;;;;;;2.77;2.17;;;;;;;-141.28;100.00;49766.94;5115303;28;20479;-78
2022/11/25 02:29:33;;;;;;;2.90;2.40;;;;;;;-141.28;100.00;49749.28;5114783;28;20963;-77
2022/11/25 02:32:00;;;;;;;4.23;2.50;;;;;;;-141.28;100.00;49761.06;5115363;28;20520;-74
2022/11/25 02:34:27;;;;;;;3.10;1.97;;;;;;;-141.28;100.00;49759.09;5114779;28;20518;-78
2022/11/25 02:36:54;;;;;;;2.40;2.03;;;;;;;-141.28;100.00;49749.28;5114832;28;21031;-79
2022/11/25 02:39:22;;;;;;;5.30;2.30;;;;;;;-141.28;100.00;49737.50;5115138;28;20509;-75
2022/11/25 02:41:54;;;;;;;3.80;2.30;;;;;;;-141.28;100.00;49753.19;5114504;28;20444;-79
2022/11/25 02:44:22;;;;;;;3.23;2.40;;;;;;;-141.28;100.00;49727.69;5115528;28;20433;-76
2022/11/25 02:46:49;;;;;;;3.40;2.30;;;;;;;-141.28;100.00;49733.56;5101753;28;20470;-76
2022/11/25 02:49:16;;;;;;;3.07;2.30;;;;;;;-141.28;100.00;49725.72;5114482;28;20449;-76
2022/11/25 02:51:45;;;;;;;3.10;1.97;;;;;;;-141.28;100.00;49725.72;5101661;28;20452;-74
2022/11/25 02:54:12;;;;;;;5.63;2.30;;;;;;;-141.28;100.00;49721.81;5114564;28;20445;-74
2022/11/25 02:56:40;;;;;;;2.63;2.10;;;;;;;-141.28;100.00;49729.66;5114514;28;21012;-77
2022/11/25 02:59:07;;;;;;;3.50;2.43;;;;;;;-141.28;100.00;49725.72;5114327;28;20448;-74
2022/11/25 03:01:37;;;;;;;2.23;2.03;;;;;;;-141.28;100.00;49698.25;5114746;28;20445;-76
2022/11/25 03:04:05;;;;;;;2.93;2.23;;;;;;;-141.28;100.00;49737.50;5114166;28;20987;-75
2022/11/25 03:06:33;;;;;;;4.67;2.33;;;;;;;-141.28;100.00;49717.88;5114685;28;20460;-74
2022/11/25 03:09:00;;;;;;;4.77;2.50;;;;;;;-141.28;100.00;49706.09;5114164;28;20496;-74
2022/11/25 03:14:08;;;;;;;2.57;2.10;;;;;;;-141.28;100.00;49713.94;5115995;28;20448;-77
2022/11/25 03:16:37;;;;;;;3.83;2.57;;;;;;;-141.28;100.00;49668.81;5117421;28;20457;-73
2022/11/25 03:19:04;;;;;;;3.13;2.43;;;;;;;-141.28;100.00;49651.16;5115998;28;20452;-75
2022/11/25 03:21:33;;;;;;;3.63;2.40;;;;;;;-141.28;100.00;49649.19;5113628;28;20509;-77
2022/11/25 03:24:00;;;;;;;7.40;2.50;;;;;;;-141.28;100.00;49631.53;5105563;28;20497;-75
2022/11/25 03:26:27;;;;;;;3.57;2.67;;;;;;;-141.28;100.00;49629.56;5109214;28;20806;-75
2022/11/25 03:28:54;;;;;;;6.73;2.77;;;;;;;-141.28;100.00;49639.38;5113856;28;21070;-78
2022/11/25 03:31:21;;;;;;;5.87;2.63;;;;;;;-141.28;100.00;49631.53;5113580;28;20834;-75
2022/11/25 03:33:50;;;;;;;5.83;2.93;;;;;;;-141.28;100.00;49631.53;5113868;28;21001;-77
2022/11/25 03:36:17;;;;;;;3.80;2.70;;;;;;;-141.28;100.00;49647.22;5113802;28;20444;-78
2022/11/25 03:38:44;;;;;;;3.13;2.40;;;;;;;-141.28;100.00;49647.22;5113600;28;20437;-75
2022/11/25 03:41:11;;;;;;;5.27;3.07;;;;;;;-141.28;100.00;49643.31;5113289;28;21023;-74
2022/11/25 03:43:38;;;;;;;4.10;2.70;;;;;;;-141.28;100.00;49647.22;5113342;28;20980;-75
2022/11/25 03:46:05;;;;;;;3.10;2.67;;;;;;;-141.28;100.00;49662.94;5113307;28;20445;-76
2022/11/25 03:48:32;;;;;;;3.63;2.63;;;;;;;-141.28;100.00;49668.81;5113528;28;20492;-77
2022/11/25 03:51:00;;;;;;;4.10;3.20;;;;;;;-141.28;100.00;49664.91;5109899;28;20446;-74
2022/11/25 03:53:27;;;;;;;4.77;2.97;;;;;;;-141.28;100.00;49659.00;5109133;28;20440;-75
2022/11/25 03:55:56;;;;;;;3.30;2.90;;;;;;;-141.28;100.00;49676.66;5114178;28;20498;-74
2022/11/25 03:58:23;;;;;;;4.47;3.07;;;;;;;-141.28;100.00;49682.56;5100843;28;20449;-75
2022/11/25 04:00:51;;;;;;;3.87;2.97;;;;;;;-141.28;100.00;49684.53;5112960;28;20448;-74
2022/11/25 04:03:18;;;;;;;4.17;2.80;;;;;;;-141.28;100.00;49704.13;5112986;28;20449;-75
2022/11/25 04:05:46;;;;;;;3.90;2.97;;;;;;;-141.28;100.00;49706.09;5113172;28;20971;-74
2022/11/25 04:08:14;;;;;;;3.90;3.13;;;;;;;-141.28;100.00;49753.19;5112929;28;20480;-75
2022/11/25 04:10:41;;;;;;;3.53;2.67;;;;;;;-141.28;100.00;49786.56;5113381;28;20452;-75
2022/11/25 04:13:07;;;;;;;3.27;2.50;;;;;;;-141.28;100.00;49819.94;5112714;28;20441;-77
2022/11/25 04:15:34;;;;;;;3.10;2.63;;;;;;;-141.28;100.00;49882.72;5113295;28;20459;-78
2022/11/25 04:18:01;;;;;;;3.00;2.43;;;;;;;-141.28;100.00;49927.88;5112451;28;20219;-76
2022/11/25 04:20:28;;;;;;;4.60;2.60;;;;;;;-141.28;100.00;49953.38;5113089;28;20465;-78
2022/11/25 04:22:56;;;;;;;2.40;2.20;;;;;;;-141.28;100.00;50022.06;5111613;28;20472;-75
2022/11/25 04:25:24;;;;;;;3.17;2.30;;;;;;;-141.28;100.00;50082.91;5113050;28;20519;-76
2022/11/25 04:27:51;;;;;;;3.50;2.70;;;;;;;-141.28;100.00;50086.84;5112462;28;20541;-77
2022/11/25 04:30:19;;;;;;;3.93;2.43;;;;;;;-141.28;100.00;50143.75;5114442;28;20502;-76
2022/11/25 04:32:45;;;;;;;4.47;3.03;;;;;;;-141.28;100.00;50110.38;5112509;28;20457;-74
2022/11/25 04:35:13;;;;;;;3.50;2.80;;;;;;;-141.28;100.00;50181.03;5113774;28;20513;-75
2022/11/25 04:37:40;;;;;;;3.90;2.63;;;;;;;-141.28;100.00;50153.56;5115966;28;20444;-76
2022/11/25 04:40:08;;;;;;;4.27;2.70;;;;;;;-141.28;100.00;50234.03;5116712;28;20506;-75
2022/11/25 04:42:38;;;;;;;2.60;2.40;;;;;;;-141.28;100.00;50269.38;5116169;28;20445;-78
2022/11/25 04:45:08;;;;;;;3.13;2.50;;;;;;;-141.28;100.00;50275.25;5113182;28;20473;-76
2022/11/25 04:47:36;;;;;;;3.50;2.30;;;;;;;-141.28;100.00;50306.66;5112642;28;20448;-75
2022/11/25 04:50:03;;;;;;;2.50;2.30;;;;;;;-141.28;100.00;50334.13;5118260;28;20449;-73
2022/11/25 04:52:30;;;;;;;2.50;2.30;;;;;;;-141.28;100.00;50342.00;5115727;28;20452;-76
2022/11/25 04:54:57;;;;;;;2.50;2.23;;;;;;;-141.28;100.00;50361.63;5111612;28;21005;-75
2022/11/25 04:57:23;;;;;;;2.67;2.03;;;;;;;-141.28;100.00;50396.94;5112449;28;20492;-76
2022/11/25 04:59:52;;;;;;;2.77;2.20;;;;;;;-141.28;100.00;50396.94;5113836;28;20490;-75
2022/11/25 05:02:22;;;;;;;6.33;2.50;;;;;;;-141.28;100.00;50408.72;5113291;28;20452;-77
2022/11/25 05:04:50;;;;;;;3.20;2.37;;;;;;;-141.28;100.00;50426.38;5112484;28;20460;-78
2022/11/25 05:07:19;;;;;;;3.07;2.77;;;;;;;-141.28;100.00;50393.03;5119627;28;20480;-74
2022/11/25 05:09:47;;;;;;;3.07;2.47;;;;;;;-141.28;100.00;50422.47;5117416;28;20499;-74
2022/11/25 05:12:16;;;;;;;2.40;2.20;;;;;;;-141.28;100.00;50473.50;5120549;28;20475;-73
2022/11/25 05:14:43;;;;;;;2.60;2.40;;;;;;;-141.28;100.00;50455.84;5121941;28;20460;-72
2022/11/25 05:17:14;;;;;;;3.50;2.90;;;;;;;-141.28;100.00;50451.91;5122586;28;20460;-74
2022/11/25 05:19:41;;;;;;;5.57;2.67;;;;;;;-141.28;100.00;50424.44;5114143;28;20448;-77
2022/11/25 05:22:11;;;;;;;2.57;2.30;;;;;;;-141.28;100.00;50438.16;5111771;28;20816;-75
2022/11/25 05:24:40;;;;;;;6.20;2.50;;;;;;;-141.28;100.00;50422.47;5112134;28;20445;-74
2022/11/25 05:27:08;;;;;;;2.37;2.00;;;;;;;-141.28;100.00;50440.13;5111761;28;20460;-74
2022/11/25 05:29:35;;;;;;;1.90;1.80;;;;;;;-141.28;100.00;50432.28;5112133;28;20920;-77
2022/11/25 05:32:02;;;;;;;3.00;2.20;;;;;;;-141.28;100.00;50432.28;5111716;28;20449;-76
2022/11/25 05:34:31;;;;;;;2.40;2.20;;;;;;;-141.28;100.00;50422.47;5114916;28;20946;-75
2022/11/25 05:36:58;;;;;;;5.77;2.77;;;;;;;-141.28;100.00;50361.63;5116146;28;20447;-75
2022/11/25 05:39:25;;;;;;;3.53;2.10;;;;;;;-141.28;100.00;50334.13;5116474;27;20451;-76
2022/11/25 05:41:52;;;;;;;6.93;4.63;;;;;;;-141.28;100.00;50310.59;5115986;28;20441;-75
2022/11/25 05:44:19;;;;;;;5.63;2.13;;;;;;;-141.28;100.00;50287.03;5116349;28;20499;-75
2022/11/25 05:46:47;;;;;;;2.30;2.10;;;;;;;-141.28;100.00;50259.56;5115619;28;20449;-76
2022/11/25 05:49:15;;;;;;;3.70;2.37;;;;;;;-141.28;100.00;50112.34;5117103;28;20476;-76
2022/11/25 05:51:43;;;;;;;4.93;2.33;;;;;;;-141.28;100.00;50212.44;5115740;28;20460;-75
2022/11/25 05:54:12;;;;;;;5.30;2.63;;;;;;;-141.28;100.00;50184.97;5115523;28;20520;-76
2022/11/25 05:56:39;;;;;;;3.43;2.20;;;;;;;-141.28;100.00;50212.44;5114528;28;20433;-75
2022/11/25 05:59:06;;;;;;;2.50;2.30;;;;;;;-141.28;100.00;50216.38;5115541;28;20452;-74
2022/11/25 06:01:34;;;;;;;2.17;1.90;;;;;;;-141.28;100.00;50440.13;5115493;28;20605;-77
2022/11/25 06:04:03;;;;;;;5.23;3.00;;;;;;;-141.28;100.00;50659.97;5115924;28;20448;-77
2022/11/25 06:06:31;;;;;;;3.23;2.40;;;;;;;-141.28;100.00;50428.34;5115527;28;20963;-76
2022/11/25 06:08:59;;;;;;;2.40;2.13;;;;;;;-141.28;100.00;50334.13;5115352;28;20492;-76
2022/11/25 06:11:27;;;;;;;2.23;2.00;;;;;;;-141.28;100.00;50342.00;5119131;28;20444;-75
2022/11/25 06:13:56;;;;;;;5.90;2.37;;;;;;;-141.28;100.00;50530.41;5115694;28;20440;-75
2022/11/25 06:16:23;;;;;;;3.40;2.13;;;;;;;-141.28;100.00;50593.22;5115491;28;20456;-77
2022/11/25 06:18:51;;;;;;;2.17;1.93;;;;;;;-141.28;100.00;50510.78;5114614;28;20472;-77
2022/11/25 06:21:18;;;;;;;4.17;2.40;;;;;;;-141.28;100.00;50436.19;5115515;28;20449;-78
2022/11/25 06:23:46;;;;;;;4.73;2.20;;;;;;;-141.28;100.00;50404.81;5115185;28;20480;-75
2022/11/25 06:26:19;;;;;;;2.30;1.97;;;;;;;-141.28;100.00;50540.22;5115006;28;20452;-75
2022/11/25 06:28:47;;;;;;;3.17;2.23;;;;;;;-141.28;100.00;50502.94;5114684;28;20491;-75
2022/11/25 06:31:15;;;;;;;2.37;2.17;;;;;;;-141.28;100.00;50412.66;5114931;28;20802;-76
2022/11/25 06:33:45;;;;;;;6.47;2.60;;;;;;;-141.28;100.00;50349.84;5114854;28;20448;-75
2022/11/25 06:36:16;;;;;;;4.07;2.43;;;;;;;-141.28;100.00;50377.31;5115528;28;20515;-75
2022/11/25 06:38:43;;;;;;;4.83;2.53;;;;;;;-141.28;100.00;50648.19;5119765;28;20902;-75
2022/11/25 06:41:10;;;;;;;3.90;2.90;;;;;;;-141.28;100.00;50447.97;5118537;28;20868;-75
2022/11/25 06:43:38;;;;;;;3.97;2.60;;;;;;;-141.28;100.00;50361.63;5115344;28;20506;-74
2022/11/25 06:46:06;;;;;;;2.87;2.50;;;;;;;-141.28;100.00;50318.44;5099939;28;20441;-76
2022/11/25 06:48:34;;;;;;;4.10;2.80;;;;;;;-141.28;100.00;50239.94;5114718;28;20519;-77
2022/11/25 06:51:05;;;;;;;7.43;2.90;;;;;;;-141.28;100.00;50212.44;5113928;28;20441;-75
2022/11/25 06:53:33;;;;;;;7.53;2.93;;;;;;;-141.28;100.00;50208.53;5114643;28;20440;-75
2022/11/25 06:56:08;;;;;;;3.73;3.00;;;;;;;-141.28;100.00;50181.03;5112941;28;20532;-74
2022/11/25 06:58:36;;;;;;;3.07;2.57;;;;;;;-141.28;100.00;50153.56;5114645;28;20447;-75
2022/11/25 07:01:06;;;;;;;5.77;2.60;;;;;;;-141.28;100.00;50131.97;5114224;28;20437;-75
2022/11/25 07:03:34;;;;;;;4.80;2.73;;;;;;;-141.28;100.00;50137.88;5114334;28;20445;-79
2022/11/25 07:06:01;;;;;;;4.30;3.40;;;;;;;-141.28;100.00;50143.75;5114288;28;20445;-75
2022/11/25 07:08:30;;;;;;;6.03;2.87;;;;;;;-141.28;100.00;50169.28;5115167;28;20899;-77
2022/11/25 07:11:03;;;;;;;4.23;2.80;;;;;;;-141.28;100.00;50161.41;5114219;28;20449;-78
2022/11/25 07:13:30;;;;;;;6.33;3.07;;;;;;;-141.28;100.00;50188.91;5114535;28;20995;-78
2022/11/25 07:16:00;;;;;;;3.10;2.60;;;;;;;-141.28;100.00;50200.66;5113809;28;20983;-76
2022/11/25 07:18:31;;;;;;;5.20;3.30;;;;;;;-141.28;100.00;50534.34;5114403;28;20516;-76
2022/11/25 07:21:04;;;;;;;4.80;3.20;;;;;;;-141.28;100.00;50475.47;5101143;28;20444;-77
2022/11/25 07:23:31;;;;;;;5.43;2.47;;;;;;;-141.28;100.00;50471.53;5114001;28;20476;-76
2022/11/25 07:26:02;;;;;;;3.40;2.87;;;;;;;-141.28;100.00;50418.53;5114353;28;20495;-78
2022/11/25 07:28:28;;;;;;;5.60;3.20;;;;;;;-141.28;100.00;50377.31;5113916;28;20581;-75
2022/11/25 07:30:55;;;;;;;4.53;2.90;;;;;;;-141.28;100.00;50400.88;5113643;28;21023;-77
2022/11/25 07:33:23;;;;;;;4.17;3.20;;;;;;;-141.28;100.00;50330.22;5099906;28;20887;-74
2022/11/25 07:35:52;;;;;;;3.90;3.10;;;;;;;-141.28;100.00;50343.94;5113816;28;20444;-77
2022/11/25 07:38:18;;;;;;;6.87;3.33;;;;;;;-141.28;100.00;50361.63;5110878;28;20452;-76
2022/11/25 07:40:45;;;;;;;6.03;3.57;;;;;;;-141.28;100.00;50330.22;5103431;28;20458;-76
2022/11/25 07:43:12;;;;;;;5.53;2.80;;;;;;;-141.28;100.00;50330.22;5113522;28;20482;-75
2022/11/25 07:45:40;;;;;;;4.57;3.23;;;;;;;-141.28;100.00;50342.00;5113410;28;20441;-78
2022/11/25 07:48:07;;;;;;;5.07;3.80;;;;;;;-141.28;100.00;50294.88;5113272;28;20498;-76
2022/11/25 07:50:34;;;;;;;4.77;3.50;;;;;;;-141.28;100.00;50342.00;5113320;28;20492;-77
2022/11/25 07:53:08;;;;;;;4.03;3.30;;;;;;;-141.28;100.00;50334.13;5109813;28;20968;-74
2022/11/25 07:55:36;;;;;;;5.03;3.03;;;;;;;-141.28;100.00;50326.28;5104906;28;20841;-75
2022/11/25 07:58:03;;;;;;;5.60;3.70;;;;;;;-141.28;100.00;50318.44;5111631;28;20449;-76
2022/11/25 08:00:30;;;;;;;5.33;3.83;;;;;;;-141.28;100.00;50241.88;5113215;28;20509;-76
2022/11/25 08:02:57;;;;;;;5.90;3.37;;;;;;;-141.28;100.00;50275.25;5112332;28;20445;-76
2022/11/25 08:05:23;;;;;;;6.70;3.30;;;;;;;-141.28;100.00;50326.28;5113186;28;20453;-77
2022/11/25 08:07:51;;;;;;;4.73;3.13;;;;;;;-141.28;100.00;50353.75;5113289;28;20445;-78
2022/11/25 08:10:19;;;;;;;5.13;3.57;;;;;;;-141.28;100.00;50363.56;5118829;28;21056;-75
2022/11/25 08:12:46;;;;;;;4.63;3.40;;;;;;;-141.28;100.00;50365.53;5115190;28;20441;-79
2022/11/25 08:15:13;;;;;;;4.60;3.53;;;;;;;-141.28;100.00;50349.84;5113580;28;20514;-77
2022/11/25 08:17:41;;;;;;;7.37;3.37;;;;;;;-141.28;100.00;50359.66;5112645;28;20605;-77
2022/11/25 08:20:10;;;;;;;5.97;2.83;;;;;;;-141.28;100.00;50342.00;5114034;28;20476;-78
2022/11/25 08:22:37;;;;;;;4.50;3.20;;;;;;;-141.28;100.00;50320.41;5104317;28;20566;-72
2022/11/25 08:25:07;;;;;;;13.10;3.17;;;;;;;-141.28;100.00;50326.28;5126961;28;20448;-74
2022/11/25 08:27:35;;;;;;;6.97;3.73;;;;;;;-141.28;100.00;50324.31;5122726;28;20420;-73
2022/11/25 08:30:02;;;;;;;5.90;3.37;;;;;;;-141.28;100.00;50251.69;5124859;28;20484;-75
2022/11/25 08:32:29;;;;;;;6.10;3.70;;;;;;;-141.28;100.00;50263.47;5128668;28;20448;-75
2022/11/25 08:34:56;;;;;;;4.30;3.50;;;;;;;-141.28;100.00;50267.41;5126734;28;20474;-77
2022/11/25 08:37:23;;;;;;;4.53;2.97;;;;;;;-141.28;100.00;50232.06;5104560;28;20445;-74
2022/11/25 08:39:50;;;;;;;7.83;3.63;;;;;;;-141.28;100.00;50200.66;5112581;28;20433;-77
2022/11/25 08:42:18;;;;;;;6.30;3.53;;;;;;;-141.28;100.00;50208.53;5120497;28;20433;-76
2022/11/25 08:44:52;;;;;;;5.17;3.37;;;;;;;-141.28;100.00;50188.91;5112803;28;20449;-75
2022/11/25 08:47:18;;;;;;;6.23;3.33;;;;;;;-141.28;100.00;50179.09;5112653;28;20841;-76
2022/11/25 08:49:46;;;;;;;7.93;3.33;;;;;;;-141.28;100.00;50184.97;5112104;28;20483;-74
2022/11/25 08:52:12;;;;;;;9.13;3.73;;;;;;;-141.28;100.00;50165.34;5113977;28;20457;-75
2022/11/25 08:54:39;;;;;;;7.17;4.17;;;;;;;-141.28;100.00;50149.63;5114394;28;20533;-78
2022/11/25 08:57:07;;;;;;;3.73;2.87;;;;;;;-141.28;100.00;50200.66;5113032;28;20484;-75
2022/11/25 08:59:35;;;;;;;4.47;3.10;;;;;;;-141.28;100.00;50183.00;5115755;28;20789;-77
2022/11/25 09:02:04;;;;;;;7.83;3.13;;;;;;;-141.28;100.00;50169.28;5114688;28;20510;-74
2022/11/25 09:04:32;;;;;;;5.73;3.43;;;;;;;-141.28;100.00;50177.13;5114015;28;20470;-78
2022/11/25 09:06:59;;;;;;;8.30;3.87;;;;;;;-141.28;100.00;50184.97;5113476;28;20457;-76
2022/11/25 09:09:27;;;;;;;7.53;3.97;;;;;;;-141.28;100.00;50173.19;5105784;28;21030;-76
2022/11/25 09:11:54;;;;;;;8.03;3.70;;;;;;;-141.28;100.00;50153.56;5103987;28;20441;-74
2022/11/25 09:14:21;;;;;;;5.93;3.40;;;;;;;-141.28;100.00;50145.72;5113712;28;20445;-75
2022/11/25 09:16:48;;;;;;;5.97;3.80;;;;;;;-141.28;100.00;50135.91;5113393;28;20451;-77
2022/11/25 09:19:17;;;;;;;7.27;3.47;;;;;;;-141.28;100.00;50133.94;5111609;28;20517;-75
2022/11/25 09:21:44;;;;;;;6.00;3.50;;;;;;;-141.28;100.00;50145.72;5111869;28;20472;-76
2022/11/25 09:24:11;;;;;;;4.77;3.23;;;;;;;-141.28;100.00;50149.63;5111914;28;20486;-75
2022/11/25 09:26:41;;;;;;;4.43;3.17;;;;;;;-141.28;100.00;50169.28;5111734;28;20448;-78
2022/11/25 09:29:08;;;;;;;4.20;3.77;;;;;;;-141.28;100.00;50188.91;5111554;28;20567;-75
2022/11/25 09:31:35;;;;;;;6.17;3.83;;;;;;;-141.28;100.00;50169.28;5111066;28;20478;-75
2022/11/25 09:34:02;;;;;;;8.80;3.73;;;;;;;-141.28;100.00;50232.06;5111166;28;20510;-75
2022/11/25 09:36:33;;;;;;;6.30;3.83;;;;;;;-141.28;100.00;50216.38;5111571;28;20478;-78
2022/11/25 09:39:00;;;;;;;7.67;4.07;;;;;;;-141.28;100.00;50216.38;5111797;28;20449;-75
2022/11/25 09:47:33;;;;;;;4.30;3.23;;;;;;;-141.28;100.00;50290.97;5113885;28;20456;-75
2022/11/25 09:50:14;;;;;;;6.77;3.90;;;;;;;-141.28;100.00;50345.91;5112456;28;20537;-76
2022/11/25 09:52:53;;;;;;;6.27;3.63;;;;;;;-141.28;100.00;50290.97;5112975;28;20483;-79
2022/11/25 09:55:22;;;;;;;4.67;3.77;;;;;;;-141.28;100.00;50292.91;5112501;28;20897;-76
2022/11/25 09:58:03;;;;;;;6.30;3.63;;;;;;;-141.28;100.00;50320.41;5109768;28;20444;-75
2022/11/25 10:00:37;;;;;;;5.60;3.60;;;;;;;-141.28;100.00;50357.69;5112552;28;20453;-75
2022/11/25 10:03:11;;;;;;;6.90;3.30;;;;;;;-141.28;100.00;50377.31;5099110;28;20443;-75
2022/11/25 10:05:43;;;;;;;7.60;3.37;;;;;;;-141.28;100.00;50400.88;5112294;28;20449;-74
2022/11/25 10:08:16;;;;;;;4.10;3.10;;;;;;;-141.28;100.00;50444.06;5111643;28;20445;-75
2022/11/25 10:10:46;;;;;;;4.97;3.77;;;;;;;-141.28;100.00;50495.09;5108267;28;20496;-76
2022/11/25 10:13:20;;;;;;;7.80;3.80;;;;;;;-141.28;100.00;50614.81;5101675;28;20487;-78
2022/11/25 10:15:49;;;;;;;6.40;3.90;;;;;;;-141.28;100.00;50958.38;5111605;28;20506;-75
2022/11/25 10:18:23;;;;;;;5.67;3.57;;;;;;;-141.28;100.00;51221.44;5111066;28;20480;-75
2022/11/25 10:20:52;;;;;;;6.33;3.13;;;;;;;-141.28;100.00;51394.22;5114444;28;20559;-75
2022/11/25 10:23:24;;;;;;;6.83;3.20;;;;;;;-141.28;100.00;51755.50;5114997;28;20270;-79
2022/11/25 10:25:56;;;;;;;17.63;3.43;;;;;;;-141.28;100.00;51963.63;5115414;28;20510;-77
2022/11/25 10:28:24;;;;;;;3.57;2.60;;;;;;;-141.28;100.00;52050.03;5115223;28;20528;-79
2022/11/25 10:30:59;;;;;;;8.50;2.60;;;;;;;-141.28;100.00;52046.13;5114966;28;20696;-75
2022/11/25 10:33:30;;;;;;;7.13;2.60;;;;;;;-141.28;100.00;51963.63;5114768;28;20515;-78
2022/11/25 10:36:06;;;;;;;4.70;3.07;;;;;;;-141.28;100.00;51837.97;5115063;28;20206;-79
2022/11/25 10:38:46;;;;;;;6.00;2.80;;;;;;;-141.28;100.00;51700.50;5115080;28;20255;-75
2022/11/25 10:41:17;;;;;;;3.10;2.50;;;;;;;-141.28;100.00;51616.06;5114801;28;20568;-77
2022/11/25 10:43:46;;;;;;;9.57;2.67;;;;;;;-141.28;100.00;51653.38;5114347;28;20249;-76
2022/11/25 10:46:24;;;;;;;4.43;2.00;;;;;;;-141.28;100.00;51763.34;5115799;28;20195;-76
2022/11/25 10:49:00;;;;;;;2.63;2.20;;;;;;;-141.28;100.00;51708.38;5103744;28;20311;-77
2022/11/25 10:51:38;;;;;;;5.60;2.50;;;;;;;-141.28;100.00;51574.84;5114312;28;20226;-76
2022/11/25 10:54:21;;;;;;;6.27;2.67;;;;;;;-141.28;100.00;51519.88;5114856;28;20556;-76
2022/11/25 10:56:53;;;;;;;2.80;2.33;;;;;;;-141.28;100.00;51582.69;5113512;28;20205;-79
2022/11/25 10:59:26;;;;;;;4.03;2.33;;;;;;;-141.28;100.00;51515.94;5114286;28;20202;-75
2022/11/25 11:02:05;;;;;;;3.60;2.27;;;;;;;-141.28;100.00;51195.91;5114838;28;20738;-76
2022/11/25 11:04:34;;;;;;;5.20;2.47;;;;;;;-141.28;100.00;51286.22;5115043;28;20191;-75
2022/11/25 11:07:08;;;;;;;4.50;2.80;;;;;;;-141.28;100.00;51402.06;5114072;28;20203;-79
2022/11/25 11:09:40;;;;;;;5.23;2.40;;;;;;;-141.28;100.00;51429.53;5101515;28;20658;-75
2022/11/25 11:12:18;;;;;;;6.50;2.80;;;;;;;-141.28;100.00;51543.44;5114200;28;20256;-75
2022/11/25 11:14:45;;;;;;;8.87;2.80;;;;;;;-141.28;100.00;51612.16;5114877;28;20195;-76
2022/11/25 11:17:34;;;;;;;6.17;2.33;;;;;;;-141.28;100.00;51720.16;5114325;28;20501;-75
2022/11/25 11:20:13;;;;;;;3.93;2.77;;;;;;;-141.28;100.00;51782.97;5109820;28;20493;-76
2022/11/25 11:22:47;;;;;;;5.57;2.77;;;;;;;-141.28;100.00;51898.84;5102939;28;20506;-76
2022/11/25 11:25:27;;;;;;;5.10;2.77;;;;;;;-141.28;100.00;51889.03;5113950;28;20498;-77
2022/11/25 11:27:54;;;;;;;6.43;3.20;;;;;;;-141.28;100.00;51871.34;5116463;28;20451;-74
2022/11/25 11:30:24;;;;;;;4.40;2.70;;;;;;;-141.28;100.00;51896.88;5114952;28;20523;-78